createdAt,value
2018-11-13T00:00:40.683Z,0.00
2018-11-13T00:01:40.717Z,0.00
2018-11-13T00:02:40.750Z,0.00
2018-11-13T00:03:40.785Z,0.00
2018-11-13T00:04:40.817Z,0.00
2018-11-13T00:05:40.849Z,0.00
2018-11-13T00:06:40.884Z,0.00
2018-11-13T00:07:40.918Z,0.00
2018-11-13T00:08:40.953Z,0.00
2018-11-13T00:09:40.985Z,0.00
2018-11-13T00:10:41.021Z,0.00
2018-11-13T00:11:41.061Z,0.00
2018-11-13T00:12:41.087Z,0.00
2018-11-13T00:13:41.124Z,0.00
2018-11-13T00:14:41.153Z,0.00
2018-11-13T00:15:41.187Z,0.00
2018-11-13T00:16:41.221Z,0.00
2018-11-13T00:17:41.257Z,0.00
2018-11-13T00:18:41.289Z,0.00
2018-11-13T00:19:41.324Z,0.00
2018-11-13T00:20:41.360Z,0.00
2018-11-13T00:21:41.389Z,0.00
2018-11-13T00:22:41.423Z,0.00
2018-11-13T00:23:41.468Z,0.00
2018-11-13T00:24:41.491Z,0.00
2018-11-13T00:25:41.525Z,0.00
2018-11-13T00:26:41.557Z,0.00
2018-11-13T00:27:41.692Z,0.00
2018-11-13T00:28:41.627Z,0.00
2018-11-13T00:29:41.661Z,0.00
2018-11-13T00:30:42.015Z,0.00
2018-11-13T00:31:41.725Z,0.00
2018-11-13T00:32:41.761Z,0.00
2018-11-13T00:33:41.793Z,0.00
2018-11-13T00:34:41.826Z,0.00
2018-11-13T00:35:41.860Z,0.00
2018-11-13T00:36:41.897Z,0.00
2018-11-13T00:37:41.929Z,0.00
2018-11-13T00:38:41.962Z,0.00
2018-11-13T00:39:41.995Z,0.00
2018-11-13T00:40:42.029Z,0.00
2018-11-13T00:41:42.062Z,0.00
2018-11-13T00:42:42.097Z,0.00
2018-11-13T00:43:42.130Z,0.00
2018-11-13T00:44:42.167Z,0.00
2018-11-13T00:45:42.270Z,0.00
2018-11-13T00:46:42.231Z,0.00
2018-11-13T00:47:42.264Z,0.00
2018-11-13T00:48:42.300Z,0.00
2018-11-13T00:49:42.332Z,0.00
2018-11-13T00:50:42.412Z,0.00
2018-11-13T00:51:42.400Z,0.00
2018-11-13T00:52:42.435Z,0.00
2018-11-13T00:53:42.465Z,0.00
2018-11-13T00:54:42.523Z,0.00
2018-11-13T00:55:42.533Z,0.00
2018-11-13T00:56:42.567Z,0.00
2018-11-13T00:57:42.605Z,0.00
2018-11-13T00:58:42.634Z,0.00
2018-11-13T00:59:42.674Z,0.00
2018-11-13T01:00:42.737Z,0.00
2018-11-13T01:01:42.734Z,0.00
2018-11-13T01:02:42.768Z,0.00
2018-11-13T01:03:42.801Z,0.00
2018-11-13T01:04:42.835Z,0.00
2018-11-13T01:05:42.919Z,0.00
2018-11-13T01:06:42.903Z,0.00
2018-11-13T01:07:42.989Z,0.00
2018-11-13T01:08:42.969Z,0.00
2018-11-13T01:09:43.002Z,0.00
2018-11-13T01:10:43.037Z,0.00
2018-11-13T01:11:43.131Z,0.00
2018-11-13T01:12:43.102Z,0.00
2018-11-13T01:13:43.138Z,0.00
2018-11-13T01:14:43.171Z,0.00
2018-11-13T01:15:43.204Z,0.00
2018-11-13T01:16:43.239Z,0.00
2018-11-13T01:17:43.270Z,0.00
2018-11-13T01:18:43.306Z,0.00
2018-11-13T01:19:43.339Z,0.00
2018-11-13T01:20:43.371Z,0.00
2018-11-13T01:21:43.405Z,0.00
2018-11-13T01:22:43.447Z,0.00
2018-11-13T01:23:43.496Z,0.00
2018-11-13T01:24:43.513Z,0.00
2018-11-13T01:25:43.543Z,0.00
2018-11-13T01:26:43.577Z,0.00
2018-11-13T01:27:43.607Z,0.00
2018-11-13T01:28:43.640Z,0.00
2018-11-13T01:29:43.675Z,0.00
2018-11-13T01:30:43.708Z,0.00
2018-11-13T01:31:43.741Z,0.00
2018-11-13T01:32:43.776Z,0.00
2018-11-13T01:33:43.808Z,0.00
2018-11-13T01:34:43.842Z,0.00
2018-11-13T01:35:43.880Z,0.00
2018-11-13T01:36:43.909Z,0.00
2018-11-13T01:37:43.947Z,0.00
2018-11-13T01:38:43.975Z,0.00
2018-11-13T01:39:44.013Z,0.00
2018-11-13T01:40:44.046Z,0.00
2018-11-13T01:41:44.133Z,0.00
2018-11-13T01:42:44.113Z,0.00
2018-11-13T01:43:44.146Z,0.00
2018-11-13T01:44:44.182Z,0.00
2018-11-13T01:45:44.211Z,0.00
2018-11-13T01:46:44.250Z,0.00
2018-11-13T01:47:44.281Z,0.00
2018-11-13T01:48:44.313Z,0.00
2018-11-13T01:49:44.344Z,0.00
2018-11-13T01:50:44.378Z,0.00
2018-11-13T01:51:44.425Z,0.00
2018-11-13T01:52:44.446Z,0.00
2018-11-13T01:53:44.478Z,0.00
2018-11-13T01:54:44.519Z,0.00
2018-11-13T01:55:44.546Z,0.00
2018-11-13T01:56:44.585Z,0.00
2018-11-13T01:57:44.617Z,0.00
2018-11-13T01:58:44.647Z,0.00
2018-11-13T01:59:44.680Z,0.00
2018-11-13T02:00:44.715Z,0.00
2018-11-13T02:01:44.748Z,0.00
2018-11-13T02:03:19.237Z,0.00
2018-11-13T02:03:44.817Z,0.00
2018-11-13T02:04:44.850Z,0.00
2018-11-13T02:05:44.886Z,0.00
2018-11-13T02:06:44.915Z,0.00
2018-11-13T02:07:44.950Z,0.00
2018-11-13T02:08:44.984Z,0.00
2018-11-13T02:09:45.021Z,0.00
2018-11-13T02:10:45.049Z,0.00
2018-11-13T02:11:45.083Z,0.00
2018-11-13T02:12:45.116Z,0.00
2018-11-13T02:13:45.151Z,0.00
2018-11-13T02:14:45.183Z,0.00
2018-11-13T02:15:45.216Z,0.00
2018-11-13T02:16:45.250Z,0.00
2018-11-13T02:17:45.282Z,0.00
2018-11-13T02:18:45.318Z,0.00
2018-11-13T02:19:45.353Z,0.00
2018-11-13T02:20:45.384Z,0.00
2018-11-13T02:21:45.418Z,0.00
2018-11-13T02:22:45.451Z,0.00
2018-11-13T02:23:45.484Z,0.00
2018-11-13T02:24:45.519Z,0.00
2018-11-13T02:25:45.552Z,0.00
2018-11-13T02:26:45.586Z,0.00
2018-11-13T02:27:45.618Z,0.00
2018-11-13T02:28:45.652Z,0.00
2018-11-13T02:29:45.686Z,0.00
2018-11-13T02:30:45.724Z,0.00
2018-11-13T02:31:45.753Z,0.00
2018-11-13T02:32:45.787Z,0.00
2018-11-13T02:33:45.819Z,0.00
2018-11-13T02:34:45.853Z,0.00
2018-11-13T02:35:45.902Z,0.00
2018-11-13T02:36:45.921Z,0.00
2018-11-13T02:37:45.955Z,0.00
2018-11-13T02:38:45.987Z,0.00
2018-11-13T02:39:46.022Z,0.00
2018-11-13T02:40:46.056Z,0.00
2018-11-13T02:41:46.088Z,0.00
2018-11-13T02:42:46.122Z,0.00
2018-11-13T02:43:46.158Z,0.00
2018-11-13T02:44:46.190Z,0.00
2018-11-13T02:45:46.223Z,0.00
2018-11-13T02:46:46.256Z,0.00
2018-11-13T02:47:46.290Z,0.00
2018-11-13T02:48:46.325Z,0.00
2018-11-13T02:49:46.359Z,0.00
2018-11-13T02:50:46.390Z,0.00
2018-11-13T02:51:46.455Z,0.00
2018-11-13T02:52:46.459Z,0.00
2018-11-13T02:53:46.490Z,0.00
2018-11-13T02:54:46.523Z,0.00
2018-11-13T02:55:46.558Z,0.00
2018-11-13T02:56:46.597Z,0.00
2018-11-13T02:57:46.624Z,0.00
2018-11-13T02:58:46.662Z,0.00
2018-11-13T02:59:46.692Z,0.00
2018-11-13T03:00:46.729Z,0.00
2018-11-13T03:01:46.760Z,0.00
2018-11-13T03:02:46.793Z,0.00
2018-11-13T03:03:46.827Z,0.00
2018-11-13T03:04:46.861Z,0.00
2018-11-13T03:05:46.895Z,0.00
2018-11-13T03:06:46.929Z,0.00
2018-11-13T03:07:46.960Z,0.00
2018-11-13T03:08:46.994Z,0.00
2018-11-13T03:09:47.030Z,0.00
2018-11-13T03:10:47.062Z,0.00
2018-11-13T03:11:47.097Z,0.00
2018-11-13T03:12:47.130Z,0.00
2018-11-13T03:13:47.196Z,0.00
2018-11-13T03:14:47.200Z,0.00
2018-11-13T03:15:47.230Z,0.00
2018-11-13T03:16:47.267Z,0.00
2018-11-13T03:17:47.297Z,0.00
2018-11-13T03:18:47.330Z,0.00
2018-11-13T03:19:47.364Z,0.00
2018-11-13T03:20:47.416Z,0.00
2018-11-13T03:21:47.431Z,0.00
2018-11-13T03:22:47.466Z,0.00
2018-11-13T03:23:47.501Z,0.00
2018-11-13T03:24:47.532Z,0.00
2018-11-13T03:25:47.570Z,0.00
2018-11-13T03:26:47.602Z,0.00
2018-11-13T03:27:47.633Z,0.00
2018-11-13T03:28:47.667Z,0.00
2018-11-13T03:29:47.700Z,0.00
2018-11-13T03:30:47.735Z,0.00
2018-11-13T03:31:47.769Z,0.00
2018-11-13T03:32:47.802Z,0.00
2018-11-13T03:33:47.835Z,0.00
2018-11-13T03:34:47.869Z,0.00
2018-11-13T03:35:47.903Z,0.00
2018-11-13T03:36:47.938Z,0.00
2018-11-13T03:37:47.968Z,0.00
2018-11-13T03:38:48.003Z,0.00
2018-11-13T03:39:48.036Z,0.00
2018-11-13T03:40:48.071Z,0.00
2018-11-13T03:41:48.103Z,0.00
2018-11-13T03:42:48.141Z,0.00
2018-11-13T03:43:48.170Z,0.00
2018-11-13T03:44:48.204Z,0.00
2018-11-13T03:45:48.237Z,0.00
2018-11-13T03:46:48.271Z,0.00
2018-11-13T03:47:48.305Z,0.00
2018-11-13T03:48:48.339Z,0.00
2018-11-13T03:49:48.372Z,0.00
2018-11-13T03:50:48.410Z,0.00
2018-11-13T03:51:48.439Z,0.00
2018-11-13T03:52:48.473Z,0.00
2018-11-13T03:53:48.507Z,0.00
2018-11-13T03:54:48.541Z,0.00
2018-11-13T03:55:48.574Z,0.00
2018-11-13T03:56:48.607Z,0.00
2018-11-13T03:57:48.641Z,0.00
2018-11-13T03:58:48.673Z,0.00
2018-11-13T03:59:48.710Z,0.00
2018-11-13T04:00:48.744Z,0.00
2018-11-13T04:01:48.775Z,0.00
2018-11-13T04:02:48.811Z,0.00
2018-11-13T04:03:48.842Z,0.00
2018-11-13T04:04:48.876Z,0.00
2018-11-13T04:05:48.909Z,0.00
2018-11-13T04:06:48.942Z,0.00
2018-11-13T04:07:48.977Z,0.00
2018-11-13T04:08:49.011Z,0.00
2018-11-13T04:09:49.043Z,0.00
2018-11-13T04:10:49.085Z,0.00
2018-11-13T04:11:49.112Z,0.00
2018-11-13T04:12:49.144Z,0.00
2018-11-13T04:13:49.178Z,0.00
2018-11-13T04:14:49.211Z,0.00
2018-11-13T04:15:49.246Z,0.00
2018-11-13T04:16:49.279Z,0.00
2018-11-13T04:17:49.315Z,0.00
2018-11-13T04:18:49.347Z,0.00
2018-11-13T04:19:49.380Z,0.00
2018-11-13T04:20:49.414Z,0.00
2018-11-13T04:21:49.450Z,0.00
2018-11-13T04:22:49.488Z,0.00
2018-11-13T04:23:49.516Z,0.00
2018-11-13T04:24:49.548Z,0.00
2018-11-13T04:25:49.580Z,0.00
2018-11-13T04:26:49.615Z,0.00
2018-11-13T04:27:49.649Z,0.00
2018-11-13T04:28:49.682Z,0.00
2018-11-13T04:29:49.715Z,0.00
2018-11-13T04:30:49.793Z,0.00
2018-11-13T04:31:49.783Z,0.00
2018-11-13T04:32:49.820Z,0.00
2018-11-13T04:33:49.850Z,0.00
2018-11-13T04:34:49.884Z,0.00
2018-11-13T04:35:49.924Z,0.00
2018-11-13T04:36:49.950Z,0.00
2018-11-13T04:37:50.006Z,0.00
2018-11-13T04:38:50.016Z,0.00
2018-11-13T04:39:50.050Z,0.00
2018-11-13T04:40:50.085Z,0.00
2018-11-13T04:41:50.116Z,0.00
2018-11-13T04:42:50.151Z,0.00
2018-11-13T04:43:50.185Z,0.00
2018-11-13T04:44:50.220Z,0.00
2018-11-13T04:45:50.251Z,0.00
2018-11-13T04:46:50.284Z,0.00
2018-11-13T04:47:50.323Z,0.00
2018-11-13T04:48:50.354Z,0.00
2018-11-13T04:49:50.386Z,0.00
2018-11-13T04:50:50.418Z,0.00
2018-11-13T04:51:50.454Z,0.00
2018-11-13T04:52:50.488Z,0.00
2018-11-13T04:53:50.520Z,0.00
2018-11-13T04:54:50.552Z,0.00
2018-11-13T04:55:50.587Z,0.00
2018-11-13T04:56:50.621Z,0.00
2018-11-13T04:57:50.669Z,0.00
2018-11-13T04:58:50.689Z,0.00
2018-11-13T04:59:50.720Z,0.00
2018-11-13T05:00:50.757Z,0.00
2018-11-13T05:01:50.787Z,0.00
2018-11-13T05:02:50.862Z,0.00
2018-11-13T05:03:50.854Z,0.00
2018-11-13T05:04:50.888Z,0.00
2018-11-13T05:05:50.921Z,0.00
2018-11-13T05:06:50.955Z,0.00
2018-11-13T05:07:50.995Z,0.00
2018-11-13T05:08:51.023Z,0.00
2018-11-13T05:09:51.099Z,0.00
2018-11-13T05:10:51.090Z,0.00
2018-11-13T05:11:51.122Z,0.00
2018-11-13T05:12:51.156Z,0.00
2018-11-13T05:13:51.188Z,0.00
2018-11-13T05:14:51.222Z,0.00
2018-11-13T05:15:51.255Z,0.00
2018-11-13T05:16:51.289Z,0.00
2018-11-13T05:17:51.327Z,0.00
2018-11-13T05:18:51.360Z,0.00
2018-11-13T05:19:51.398Z,0.00
2018-11-13T05:20:51.423Z,0.00
2018-11-13T05:21:51.456Z,0.00
2018-11-13T05:22:51.507Z,0.00
2018-11-13T05:23:51.523Z,0.00
2018-11-13T05:24:51.557Z,0.00
2018-11-13T05:25:51.589Z,0.00
2018-11-13T05:26:51.622Z,0.00
2018-11-13T05:27:51.657Z,0.00
2018-11-13T05:28:51.690Z,0.00
2018-11-13T05:29:51.722Z,0.00
2018-11-13T05:30:51.757Z,0.00
2018-11-13T05:31:51.789Z,0.00
2018-11-13T05:32:51.825Z,0.00
2018-11-13T05:33:51.856Z,0.00
2018-11-13T05:34:51.895Z,0.00
2018-11-13T05:35:51.925Z,0.00
2018-11-13T05:36:51.957Z,0.00
2018-11-13T05:37:51.989Z,0.00
2018-11-13T05:38:52.024Z,0.00
2018-11-13T05:39:52.056Z,0.00
2018-11-13T05:40:52.090Z,0.00
2018-11-13T05:41:52.196Z,0.00
2018-11-13T05:42:52.157Z,0.00
2018-11-13T05:43:52.190Z,0.00
2018-11-13T05:44:52.224Z,0.00
2018-11-13T05:45:52.257Z,0.00
2018-11-13T05:46:52.291Z,0.00
2018-11-13T05:47:52.326Z,0.00
2018-11-13T05:48:52.357Z,0.00
2018-11-13T05:49:52.393Z,0.00
2018-11-13T05:50:52.424Z,0.00
2018-11-13T05:51:52.457Z,0.00
2018-11-13T05:52:52.490Z,0.00
2018-11-13T05:53:52.524Z,0.00
2018-11-13T05:54:52.556Z,0.00
2018-11-13T05:55:52.591Z,0.00
2018-11-13T05:56:52.623Z,0.00
2018-11-13T05:57:52.658Z,0.00
2018-11-13T05:58:52.692Z,0.00
2018-11-13T05:59:52.830Z,0.00
2018-11-13T06:00:52.759Z,0.00
2018-11-13T06:01:52.791Z,0.00
2018-11-13T06:02:52.823Z,0.00
2018-11-13T06:03:52.858Z,0.00
2018-11-13T06:04:52.892Z,0.00
2018-11-13T06:05:52.925Z,0.00
2018-11-13T06:06:52.958Z,0.00
2018-11-13T06:07:52.992Z,0.00
2018-11-13T06:08:53.024Z,0.00
2018-11-13T06:09:53.059Z,0.00
2018-11-13T06:10:53.131Z,0.00
2018-11-13T06:11:53.123Z,0.00
2018-11-13T06:12:53.161Z,0.00
2018-11-13T06:13:53.252Z,0.00
2018-11-13T06:14:53.224Z,0.00
2018-11-13T06:15:53.256Z,0.00
2018-11-13T06:16:53.290Z,0.00
2018-11-13T06:17:53.322Z,0.00
2018-11-13T06:18:53.357Z,0.00
2018-11-13T06:19:53.390Z,0.00
2018-11-13T06:20:53.425Z,0.00
2018-11-13T06:21:53.456Z,0.00
2018-11-13T06:22:53.530Z,0.00
2018-11-13T06:23:53.525Z,0.00
2018-11-13T06:24:53.558Z,0.00
2018-11-13T06:25:53.589Z,4.00
2018-11-13T06:26:53.624Z,4.00
2018-11-13T06:27:53.657Z,4.00
2018-11-13T06:28:53.689Z,4.00
2018-11-13T06:29:53.722Z,4.00
2018-11-13T06:30:53.755Z,4.00
2018-11-13T06:31:53.788Z,4.00
2018-11-13T06:32:53.824Z,4.00
2018-11-13T06:33:53.855Z,0.00
2018-11-13T06:34:53.889Z,4.00
2018-11-13T06:35:53.923Z,4.00
2018-11-13T06:36:53.955Z,8.00
2018-11-13T06:37:53.987Z,4.00
2018-11-13T06:38:54.086Z,4.00
2018-11-13T06:39:54.054Z,4.00
2018-11-13T06:40:54.089Z,4.00
2018-11-13T06:41:54.131Z,8.00
2018-11-13T06:42:54.155Z,4.00
2018-11-13T06:43:54.188Z,8.00
2018-11-13T06:44:54.225Z,12.00
2018-11-13T06:45:54.252Z,12.00
2018-11-13T06:46:54.287Z,12.00
2018-11-13T06:47:54.320Z,12.00
2018-11-13T06:48:54.389Z,12.00
2018-11-13T06:49:54.387Z,12.00
2018-11-13T06:50:54.419Z,16.00
2018-11-13T06:51:54.456Z,16.00
2018-11-13T06:52:54.486Z,12.00
2018-11-13T06:53:54.518Z,8.00
2018-11-13T06:54:54.553Z,8.00
2018-11-13T06:55:54.586Z,8.00
2018-11-13T06:56:54.619Z,8.00
2018-11-13T06:57:54.653Z,8.00
2018-11-13T06:58:54.688Z,8.00
2018-11-13T06:59:54.718Z,12.00
2018-11-13T07:00:54.752Z,12.00
2018-11-13T07:01:54.785Z,12.00
2018-11-13T07:02:54.821Z,16.00
2018-11-13T07:03:54.851Z,20.00
2018-11-13T07:04:54.940Z,24.00
2018-11-13T07:05:54.917Z,24.00
2018-11-13T07:06:54.952Z,28.00
2018-11-13T07:07:54.986Z,28.00
2018-11-13T07:08:55.018Z,32.00
2018-11-13T07:09:55.052Z,32.00
2018-11-13T07:10:55.153Z,32.00
2018-11-13T07:11:55.117Z,32.00
2018-11-13T07:12:55.151Z,40.00
2018-11-13T07:13:55.184Z,36.00
2018-11-13T07:14:55.217Z,40.00
2018-11-13T07:15:55.252Z,36.00
2018-11-13T07:16:55.284Z,36.00
2018-11-13T07:17:55.319Z,32.00
2018-11-13T07:18:55.351Z,28.00
2018-11-13T07:19:55.384Z,28.00
2018-11-13T07:20:55.416Z,24.00
2018-11-13T07:21:55.450Z,28.00
2018-11-13T07:22:55.483Z,28.00
2018-11-13T07:23:55.517Z,32.00
2018-11-13T07:24:55.550Z,32.00
2018-11-13T07:25:55.585Z,32.00
2018-11-13T07:26:55.649Z,32.00
2018-11-13T07:27:55.693Z,32.00
2018-11-13T07:28:55.688Z,32.00
2018-11-13T07:29:55.717Z,32.00
2018-11-13T07:30:55.749Z,32.00
2018-11-13T07:31:55.786Z,32.00
2018-11-13T07:32:55.817Z,32.00
2018-11-13T07:33:55.849Z,32.00
2018-11-13T07:34:55.882Z,32.00
2018-11-13T07:35:55.919Z,36.00
2018-11-13T07:36:55.950Z,40.00
2018-11-13T07:37:55.982Z,36.00
2018-11-13T07:38:56.017Z,36.00
2018-11-13T07:39:56.049Z,32.00
2018-11-13T07:40:56.104Z,36.00
2018-11-13T07:41:56.117Z,32.00
2018-11-13T07:42:56.151Z,32.00
2018-11-13T07:43:56.185Z,28.00
2018-11-13T07:44:56.217Z,28.00
2018-11-13T07:45:56.249Z,24.00
2018-11-13T07:46:56.303Z,20.00
2018-11-13T07:47:56.469Z,16.00
2018-11-13T07:48:56.351Z,16.00
2018-11-13T07:49:56.383Z,20.00
2018-11-13T07:50:56.424Z,16.00
2018-11-13T07:51:56.449Z,20.00
2018-11-13T07:52:56.484Z,20.00
2018-11-13T07:53:56.684Z,28.00
2018-11-13T07:54:56.550Z,24.00
2018-11-13T07:55:56.584Z,24.00
2018-11-13T07:56:56.616Z,28.00
2018-11-13T07:57:56.648Z,28.00
2018-11-13T07:58:56.687Z,32.00
2018-11-13T07:59:56.717Z,32.00
2018-11-13T08:00:56.751Z,32.00
2018-11-13T08:01:56.783Z,28.00
2018-11-13T08:03:20.839Z,32.00
2018-11-13T08:03:56.850Z,28.00
2018-11-13T08:04:56.883Z,24.00
2018-11-13T08:05:56.917Z,28.00
2018-11-13T08:06:56.951Z,32.00
2018-11-13T08:07:56.983Z,32.00
2018-11-13T08:08:57.017Z,28.00
2018-11-13T08:09:57.050Z,32.00
2018-11-13T08:10:57.083Z,32.00
2018-11-13T08:11:57.121Z,28.00
2018-11-13T08:12:57.301Z,32.00
2018-11-13T08:13:57.184Z,36.00
2018-11-13T08:14:57.217Z,40.00
2018-11-13T08:15:57.249Z,48.00
2018-11-13T08:16:57.285Z,52.00
2018-11-13T08:17:57.317Z,52.00
2018-11-13T08:18:57.363Z,60.00
2018-11-13T08:19:57.385Z,64.00
2018-11-13T08:20:57.444Z,68.00
2018-11-13T08:21:57.486Z,64.00
2018-11-13T08:22:57.484Z,68.00
2018-11-13T08:23:57.517Z,72.00
2018-11-13T08:24:57.555Z,76.00
2018-11-13T08:25:57.585Z,84.00
2018-11-13T08:26:57.653Z,84.00
2018-11-13T08:27:57.705Z,88.00
2018-11-13T08:28:57.744Z,92.00
2018-11-13T08:29:57.717Z,96.00
2018-11-13T08:30:57.751Z,92.00
2018-11-13T08:31:57.785Z,92.00
2018-11-13T08:32:57.820Z,84.00
2018-11-13T08:33:57.851Z,80.00
2018-11-13T08:34:57.978Z,76.00
2018-11-13T08:35:57.919Z,76.00
2018-11-13T08:36:57.953Z,72.00
2018-11-13T08:37:57.985Z,72.00
2018-11-13T08:38:58.018Z,80.00
2018-11-13T08:39:58.052Z,92.00
2018-11-13T08:40:58.085Z,100.00
2018-11-13T08:41:58.117Z,104.00
2018-11-13T08:42:58.153Z,108.00
2018-11-13T08:43:58.244Z,112.00
2018-11-13T08:44:58.218Z,108.00
2018-11-13T08:45:58.252Z,104.00
2018-11-13T08:46:58.286Z,96.00
2018-11-13T08:47:58.320Z,92.00
2018-11-13T08:48:58.352Z,84.00
2018-11-13T08:49:58.386Z,80.00
2018-11-13T08:50:58.466Z,80.00
2018-11-13T08:51:58.458Z,84.00
2018-11-13T08:52:58.485Z,80.00
2018-11-13T08:53:58.521Z,84.00
2018-11-13T08:54:58.553Z,84.00
2018-11-13T08:55:58.587Z,76.00
2018-11-13T08:56:58.620Z,80.00
2018-11-13T08:57:58.652Z,80.00
2018-11-13T08:58:58.727Z,84.00
2018-11-13T08:59:58.721Z,88.00
2018-11-13T09:00:58.754Z,92.00
2018-11-13T09:01:58.787Z,104.00
2018-11-13T09:02:58.821Z,120.00
2018-11-13T09:03:58.854Z,120.00
2018-11-13T09:04:58.909Z,112.00
2018-11-13T09:05:58.923Z,120.00
2018-11-13T09:06:58.956Z,128.00
2018-11-13T09:07:58.997Z,128.00
2018-11-13T09:08:59.020Z,120.00
2018-11-13T09:09:59.053Z,116.00
2018-11-13T09:10:59.087Z,116.00
2018-11-13T09:11:59.314Z,116.00
2018-11-13T09:12:59.160Z,112.00
2018-11-13T09:13:59.188Z,116.00
2018-11-13T09:14:59.222Z,140.00
2018-11-13T09:15:59.255Z,148.00
2018-11-13T09:16:59.290Z,160.00
2018-11-13T09:17:59.358Z,156.00
2018-11-13T09:18:59.424Z,124.00
2018-11-13T09:19:59.390Z,128.00
2018-11-13T09:20:59.423Z,144.00
2018-11-13T09:21:59.456Z,144.00
2018-11-13T09:22:59.488Z,128.00
2018-11-13T09:23:59.523Z,124.00
2018-11-13T09:24:59.556Z,148.00
2018-11-13T09:25:59.588Z,164.00
2018-11-13T09:26:59.623Z,172.00
2018-11-13T09:27:59.658Z,168.00
2018-11-13T09:28:59.691Z,152.00
2018-11-13T09:29:59.797Z,144.00
2018-11-13T09:30:59.910Z,144.00
2018-11-13T09:31:59.792Z,128.00
2018-11-13T09:32:59.844Z,112.00
2018-11-13T09:33:59.858Z,112.00
2018-11-13T09:34:59.942Z,116.00
2018-11-13T09:35:59.925Z,132.00
2018-11-13T09:36:59.958Z,140.00
2018-11-13T09:37:59.998Z,144.00
2018-11-13T09:39:00.026Z,152.00
2018-11-13T09:40:00.059Z,160.00
2018-11-13T09:41:00.093Z,164.00
2018-11-13T09:42:00.125Z,176.00
2018-11-13T09:43:00.162Z,196.00
2018-11-13T09:44:00.197Z,204.00
2018-11-13T09:45:00.306Z,180.00
2018-11-13T09:46:00.350Z,168.00
2018-11-13T09:47:00.293Z,164.00
2018-11-13T09:48:00.332Z,172.00
2018-11-13T09:49:00.360Z,156.00
2018-11-13T09:50:00.394Z,128.00
2018-11-13T09:51:00.426Z,108.00
2018-11-13T09:52:00.465Z,100.00
2018-11-13T09:53:00.495Z,116.00
2018-11-13T09:54:00.529Z,172.00
2018-11-13T09:55:00.564Z,200.00
2018-11-13T09:56:00.595Z,196.00
2018-11-13T09:57:00.630Z,152.00
2018-11-13T09:58:00.663Z,184.00
2018-11-13T09:59:00.817Z,200.00
2018-11-13T10:00:00.795Z,232.00
2018-11-13T10:01:00.902Z,236.00
2018-11-13T10:02:01.349Z,268.00
2018-11-13T10:03:01.452Z,260.00
2018-11-13T10:04:01.572Z,272.00
2018-11-13T10:05:01.486Z,252.00
2018-11-13T10:06:01.030Z,212.00
2018-11-13T10:07:00.992Z,200.00
2018-11-13T10:08:00.999Z,212.00
2018-11-13T10:09:01.032Z,196.00
2018-11-13T10:10:01.100Z,180.00
2018-11-13T10:11:01.100Z,208.00
2018-11-13T10:12:01.137Z,212.00
2018-11-13T10:13:01.167Z,196.00
2018-11-13T10:14:01.198Z,212.00
2018-11-13T10:15:01.234Z,208.00
2018-11-13T10:16:01.270Z,200.00
2018-11-13T10:17:01.374Z,192.00
2018-11-13T10:18:01.491Z,180.00
2018-11-13T10:19:01.380Z,176.00
2018-11-13T10:20:01.400Z,180.00
2018-11-13T10:21:01.432Z,184.00
2018-11-13T10:22:01.466Z,196.00
2018-11-13T10:23:01.504Z,192.00
2018-11-13T10:24:01.533Z,208.00
2018-11-13T10:25:01.568Z,212.00
2018-11-13T10:26:01.604Z,200.00
2018-11-13T10:27:01.646Z,196.00
2018-11-13T10:28:01.669Z,184.00
2018-11-13T10:29:01.701Z,192.00
2018-11-13T10:30:01.834Z,200.00
2018-11-13T10:31:01.775Z,212.00
2018-11-13T10:32:01.805Z,204.00
2018-11-13T10:33:01.836Z,216.00
2018-11-13T10:34:01.876Z,196.00
2018-11-13T10:35:01.902Z,172.00
2018-11-13T10:36:01.937Z,164.00
2018-11-13T10:37:01.970Z,184.00
2018-11-13T10:38:02.003Z,200.00
2018-11-13T10:39:02.037Z,196.00
2018-11-13T10:40:02.118Z,172.00
2018-11-13T10:41:02.164Z,128.00
2018-11-13T10:42:02.137Z,120.00
2018-11-13T10:43:02.170Z,156.00
2018-11-13T10:44:02.204Z,164.00
2018-11-13T10:45:02.246Z,228.00
2018-11-13T10:46:02.274Z,268.00
2018-11-13T10:47:02.304Z,256.00
2018-11-13T10:48:02.339Z,236.00
2018-11-13T10:49:02.427Z,272.00
2018-11-13T10:50:02.422Z,272.00
2018-11-13T10:51:02.440Z,272.00
2018-11-13T10:52:02.473Z,244.00
2018-11-13T10:53:02.505Z,292.00
2018-11-13T10:54:02.538Z,316.00
2018-11-13T10:55:02.573Z,280.00
2018-11-13T10:56:02.604Z,232.00
2018-11-13T10:57:02.639Z,236.00
2018-11-13T10:58:02.673Z,248.00
2018-11-13T10:59:02.707Z,236.00
2018-11-13T11:00:02.740Z,264.00
2018-11-13T11:01:02.774Z,244.00
2018-11-13T11:02:02.809Z,276.00
2018-11-13T11:03:02.930Z,232.00
2018-11-13T11:04:02.873Z,184.00
2018-11-13T11:05:02.908Z,220.00
2018-11-13T11:06:02.940Z,188.00
2018-11-13T11:07:02.982Z,184.00
2018-11-13T11:08:03.007Z,240.00
2018-11-13T11:09:03.045Z,280.00
2018-11-13T11:10:03.074Z,312.00
2018-11-13T11:11:03.106Z,340.00
2018-11-13T11:12:03.141Z,320.00
2018-11-13T11:13:03.332Z,272.00
2018-11-13T11:14:03.403Z,284.00
2018-11-13T11:15:03.241Z,284.00
2018-11-13T11:16:03.274Z,300.00
2018-11-13T11:17:03.309Z,280.00
2018-11-13T11:18:03.352Z,292.00
2018-11-13T11:19:03.445Z,316.00
2018-11-13T11:20:03.409Z,320.00
2018-11-13T11:21:03.442Z,288.00
2018-11-13T11:22:03.474Z,280.00
2018-11-13T11:23:03.564Z,272.00
2018-11-13T11:24:03.606Z,264.00
2018-11-13T11:25:03.631Z,244.00
2018-11-13T11:26:03.611Z,220.00
2018-11-13T11:27:03.641Z,196.00
2018-11-13T11:28:03.721Z,200.00
2018-11-13T11:29:03.712Z,200.00
2018-11-13T11:30:03.741Z,196.00
2018-11-13T11:31:03.816Z,192.00
2018-11-13T11:32:03.809Z,232.00
2018-11-13T11:33:03.843Z,240.00
2018-11-13T11:34:03.877Z,248.00
2018-11-13T11:35:03.909Z,236.00
2018-11-13T11:36:03.943Z,236.00
2018-11-13T11:37:03.976Z,236.00
2018-11-13T11:38:04.009Z,236.00
2018-11-13T11:39:04.094Z,240.00
2018-11-13T11:40:04.076Z,248.00
2018-11-13T11:41:04.109Z,244.00
2018-11-13T11:42:04.142Z,232.00
2018-11-13T11:43:04.176Z,288.00
2018-11-13T11:44:04.208Z,300.00
2018-11-13T11:45:04.243Z,304.00
2018-11-13T11:46:04.275Z,304.00
2018-11-13T11:47:04.308Z,288.00
2018-11-13T11:48:04.343Z,268.00
2018-11-13T11:49:04.377Z,240.00
2018-11-13T11:50:04.408Z,228.00
2018-11-13T11:51:04.443Z,216.00
2018-11-13T11:52:04.476Z,204.00
2018-11-13T11:53:04.508Z,196.00
2018-11-13T11:54:04.543Z,188.00
2018-11-13T11:55:04.575Z,168.00
2018-11-13T11:56:04.616Z,172.00
2018-11-13T11:57:04.643Z,164.00
2018-11-13T11:58:04.673Z,160.00
2018-11-13T11:59:04.709Z,156.00
2018-11-13T12:00:04.742Z,176.00
2018-11-13T12:01:04.774Z,204.00
2018-11-13T12:02:04.814Z,216.00
2018-11-13T12:03:04.865Z,208.00
2018-11-13T12:04:04.875Z,196.00
2018-11-13T12:05:04.909Z,172.00
2018-11-13T12:06:04.941Z,152.00
2018-11-13T12:07:04.974Z,160.00
2018-11-13T12:08:05.009Z,172.00
2018-11-13T12:09:05.043Z,180.00
2018-11-13T12:10:05.074Z,172.00
2018-11-13T12:11:05.128Z,164.00
2018-11-13T12:12:05.179Z,156.00
2018-11-13T12:13:05.176Z,176.00
2018-11-13T12:14:05.209Z,232.00
2018-11-13T12:15:05.241Z,240.00
2018-11-13T12:16:05.275Z,272.00
2018-11-13T12:17:05.341Z,304.00
2018-11-13T12:18:05.341Z,304.00
2018-11-13T12:19:05.466Z,292.00
2018-11-13T12:20:05.408Z,280.00
2018-11-13T12:21:05.442Z,292.00
2018-11-13T12:22:05.479Z,308.00
2018-11-13T12:23:05.508Z,332.00
2018-11-13T12:24:05.546Z,432.00
2018-11-13T12:25:05.576Z,672.00
2018-11-13T12:26:05.609Z,956.00
2018-11-13T12:27:05.642Z,1788.00
2018-11-13T12:28:05.676Z,1784.00
2018-11-13T12:29:05.709Z,1740.00
2018-11-13T12:30:05.744Z,1956.00
2018-11-13T12:31:05.775Z,1668.00
2018-11-13T12:32:05.809Z,1360.00
2018-11-13T12:33:05.844Z,1552.00
2018-11-13T12:34:05.876Z,4320.00
2018-11-13T12:35:05.910Z,2280.00
2018-11-13T12:36:05.944Z,1656.00
2018-11-13T12:37:05.978Z,1484.00
2018-11-13T12:38:06.012Z,1404.00
2018-11-13T12:39:06.044Z,1428.00
2018-11-13T12:40:06.076Z,1128.00
2018-11-13T12:41:06.112Z,752.00
2018-11-13T12:42:06.145Z,732.00
2018-11-13T12:43:06.177Z,832.00
2018-11-13T12:44:06.212Z,1124.00
2018-11-13T12:45:06.873Z,1076.00
2018-11-13T12:46:06.278Z,1252.00
2018-11-13T12:47:06.314Z,1304.00
2018-11-13T12:48:06.353Z,1072.00
2018-11-13T12:49:06.436Z,1536.00
2018-11-13T12:50:06.414Z,1892.00
2018-11-13T12:51:06.448Z,1992.00
2018-11-13T12:52:06.484Z,1768.00
2018-11-13T12:53:06.516Z,1692.00
2018-11-13T12:54:06.548Z,1884.00
2018-11-13T12:55:06.583Z,1132.00
2018-11-13T12:56:06.666Z,788.00
2018-11-13T12:57:06.652Z,644.00
2018-11-13T12:58:06.686Z,568.00